Time;durP1;ratioP1;P1;durP2;ratioP2;P2;SDS_P1;SDS_P2;PMS_P1;PMS_P2;Temp;Humidity;BMP_temperature;BMP_pressure;BME280_temperature;BME280_humidity;BME280_pressure;Samples;Min_cycle;Max_cycle;Signal;HPM_P1;HPM_P2
2022/12/23 00:00:52;;;;;;;125.38;41.60;;;;;;;;;;5057057;28;20024;-77
2022/12/23 00:03:18;;;;;;;117.00;39.85;;;;;;;;;;5056414;28;20016;-78
2022/12/23 00:05:43;;;;;;;118.22;41.15;;;;;;;;;;5074161;28;20103;-77
2022/12/23 00:08:09;;;;;;;112.45;42.05;;;;;;;;;;5074129;28;20027;-78
2022/12/23 00:10:37;;;;;;;125.40;42.78;;;;;;;;;;5074299;28;20060;-77
2022/12/23 00:15:47;;;;;;;124.45;42.33;;;;;;;;;;5073822;28;20039;-78
2022/12/23 00:18:12;;;;;;;132.40;44.17;;;;;;;;;;5074418;28;20111;-77
2022/12/23 00:20:37;;;;;;;123.22;42.95;;;;;;;;;;5056469;28;20113;-78
2022/12/23 00:23:05;;;;;;;127.60;43.25;;;;;;;;;;5074508;28;20044;-78
2022/12/23 00:25:40;;;;;;;127.78;43.72;;;;;;;;;;5074555;28;20032;-77
2022/12/23 00:28:07;;;;;;;128.43;43.83;;;;;;;;;;5057096;28;20025;-77
2022/12/23 00:30:32;;;;;;;128.20;47.03;;;;;;;;;;5036257;28;20107;-77
2022/12/23 00:32:57;;;;;;;124.57;43.53;;;;;;;;;;5036400;28;20454;-77
2022/12/23 00:35:23;;;;;;;135.40;46.03;;;;;;;;;;5054044;28;20449;-78
2022/12/23 00:37:48;;;;;;;131.70;43.70;;;;;;;;;;5054040;28;20036;-79
2022/12/23 00:42:58;;;;;;;128.52;44.67;;;;;;;;;;5038795;28;20051;-78
2022/12/23 00:45:23;;;;;;;127.78;42.95;;;;;;;;;;5035816;28;20029;-78
2022/12/23 00:50:37;;;;;;;143.18;46.10;;;;;;;;;;5038735;28;20036;-77
2022/12/23 00:53:03;;;;;;;137.52;46.92;;;;;;;;;;5053727;28;20021;-77
2022/12/23 00:55:28;;;;;;;132.40;44.83;;;;;;;;;;5053612;28;20028;-78
2022/12/23 00:57:54;;;;;;;105.68;36.75;;;;;;;;;;5035975;28;20033;-77
2022/12/23 01:05:35;;;;;;;113.72;38.47;;;;;;;;;;5053511;28;20119;-76
2022/12/23 01:05:48;;;;;;;94.50;30.85;;;;;;;;;;5039704;28;20059;-77
2022/12/23 01:08:14;;;;;;;89.22;31.77;;;;;;;;;;5058210;28;20053;-76
2022/12/23 01:10:39;;;;;;;95.03;32.50;;;;;;;;;;5057799;28;20033;-77
2022/12/23 01:13:05;;;;;;;78.53;28.55;;;;;;;;;;5040097;28;20052;-78
2022/12/23 01:15:31;;;;;;;95.65;34.42;;;;;;;;;;5039415;28;20449;-78
2022/12/23 01:17:56;;;;;;;93.28;34.70;;;;;;;;;;5039517;28;20116;-77
2022/12/23 01:20:22;;;;;;;83.78;30.27;;;;;;;;;;5057961;28;20039;-77
2022/12/23 01:22:47;;;;;;;83.15;28.73;;;;;;;;;;5057539;28;20041;-77
2022/12/23 01:25:12;;;;;;;81.50;27.83;;;;;;;;;;5057416;28;20036;-77
2022/12/23 01:27:38;;;;;;;79.97;26.38;;;;;;;;;;5057493;28;20343;-77
2022/12/23 01:30:04;;;;;;;74.03;25.00;;;;;;;;;;5054701;28;20141;-77
2022/12/23 01:32:29;;;;;;;73.53;25.83;;;;;;;;;;5097358;28;20047;-78
2022/12/23 01:34:55;;;;;;;70.65;26.00;;;;;;;;;;5079782;28;20128;-78
2022/12/23 01:37:20;;;;;;;71.22;24.88;;;;;;;;;;5101110;28;20024;-78
2022/12/23 01:39:46;;;;;;;74.25;26.20;;;;;;;;;;5101866;28;20024;-77
2022/12/23 01:45:23;;;;;;;78.10;24.85;;;;;;;;;;5027578;28;20033;-77
2022/12/23 01:47:56;;;;;;;93.57;28.42;;;;;;;;;;5036124;28;20025;-78
2022/12/23 01:50:44;;;;;;;90.75;29.23;;;;;;;;;;5052709;28;20414;-77
2022/12/23 01:53:24;;;;;;;94.10;28.13;;;;;;;;;;5079269;28;20036;-78
2022/12/23 01:56:08;;;;;;;87.65;27.73;;;;;;;;;;5063100;28;20032;-77
2022/12/23 01:58:37;;;;;;;90.97;28.50;;;;;;;;;;5078772;28;20032;-77
2022/12/23 02:03:48;;;;;;;91.65;28.48;;;;;;;;;;5067314;28;20484;-78
2022/12/23 02:09:16;;;;;;;114.97;31.85;;;;;;;;;;5081484;28;20031;-78
2022/12/23 02:12:03;;;;;;;120.20;33.33;;;;;;;;;;5062955;28;20024;-77
2022/12/23 02:18:09;;;;;;;117.20;33.65;;;;;;;;;;5082984;28;20055;-78
2022/12/23 02:20:47;;;;;;;113.63;34.40;;;;;;;;;;5078365;28;20032;-77
2022/12/23 02:23:39;;;;;;;116.05;32.40;;;;;;;;;;5097157;28;20020;-78
2022/12/23 02:26:14;;;;;;;126.00;35.75;;;;;;;;;;5079741;28;20036;-77
2022/12/23 02:29:02;;;;;;;120.35;33.72;;;;;;;;;;5090649;28;20040;-77
2022/12/23 02:31:52;;;;;;;119.93;33.13;;;;;;;;;;5065784;28;20326;-77
2022/12/23 02:34:36;;;;;;;123.28;34.17;;;;;;;;;;5075829;28;20032;-77
2022/12/23 02:37:24;;;;;;;128.82;35.28;;;;;;;;;;5076185;28;20544;-77
2022/12/23 02:39:53;;;;;;;123.45;34.95;;;;;;;;;;5076205;28;20040;-78
2022/12/23 02:42:21;;;;;;;128.05;37.22;;;;;;;;;;5075905;28;20063;-78
2022/12/23 02:44:57;;;;;;;131.85;37.40;;;;;;;;;;5058206;28;20036;-77
2022/12/23 02:47:34;;;;;;;125.68;38.47;;;;;;;;;;5042992;28;20025;-77
2022/12/23 02:50:03;;;;;;;130.35;38.60;;;;;;;;;;5075985;28;20044;-77
2022/12/23 02:52:30;;;;;;;132.13;38.03;;;;;;;;;;5041302;28;20429;-77
2022/12/23 02:54:57;;;;;;;143.27;40.70;;;;;;;;;;5041053;28;20044;-77
2022/12/23 02:57:36;;;;;;;133.50;38.72;;;;;;;;;;5041260;28;20735;-77
2022/12/23 03:00:02;;;;;;;136.65;40.90;;;;;;;;;;5057907;28;20074;-77
2022/12/23 03:02:35;;;;;;;143.00;38.30;;;;;;;;;;5041300;28;20051;-77
2022/12/23 03:05:00;;;;;;;124.53;39.35;;;;;;;;;;5041626;28;20037;-77
2022/12/23 03:07:32;;;;;;;137.68;40.05;;;;;;;;;;5075744;28;20036;-77
2022/12/23 03:10:21;;;;;;;140.05;41.22;;;;;;;;;;5041796;28;20025;-76
2022/12/23 03:12:55;;;;;;;130.80;39.55;;;;;;;;;;5041181;28;20033;-76
2022/12/23 03:15:40;;;;;;;136.02;40.33;;;;;;;;;;5075328;28;20047;-77
2022/12/23 03:18:05;;;;;;;147.98;40.70;;;;;;;;;;5042427;28;20032;-77
2022/12/23 03:20:40;;;;;;;145.98;42.10;;;;;;;;;;5075459;28;20365;-76
2022/12/23 03:23:21;;;;;;;137.05;40.20;;;;;;;;;;5075414;28;20031;-77
2022/12/23 03:26:26;;;;;;;137.50;40.97;;;;;;;;;;5074740;28;20032;-76
2022/12/23 03:28:57;;;;;;;144.55;39.92;;;;;;;;;;5007828;28;20043;-76
2022/12/23 03:31:25;;;;;;;150.60;40.50;;;;;;;;;;5040870;28;20032;-76
2022/12/23 03:33:59;;;;;;;135.23;42.08;;;;;;;;;;5028534;28;20029;-77
2022/12/23 03:36:33;;;;;;;136.65;41.72;;;;;;;;;;5036645;28;20032;-77
2022/12/23 03:38:59;;;;;;;147.60;42.83;;;;;;;;;;5038014;28;20064;-76
2022/12/23 03:41:29;;;;;;;128.68;41.42;;;;;;;;;;5020487;28;20099;-76
2022/12/23 03:44:03;;;;;;;144.25;44.17;;;;;;;;;;5036895;28;20132;-77
2022/12/23 03:46:35;;;;;;;138.85;42.95;;;;;;;;;;5040842;28;20381;-76
2022/12/23 03:49:04;;;;;;;136.43;40.95;;;;;;;;;;5040672;28;20031;-76
2022/12/23 03:51:51;;;;;;;134.15;40.63;;;;;;;;;;5057212;28;20039;-76
2022/12/23 03:54:20;;;;;;;139.57;41.80;;;;;;;;;;5074137;28;20055;-76
2022/12/23 03:56:50;;;;;;;143.20;44.50;;;;;;;;;;5056749;28;20434;-77
2022/12/23 03:59:18;;;;;;;136.02;41.45;;;;;;;;;;5040549;28;20025;-76
2022/12/23 04:02:22;;;;;;;139.85;43.40;;;;;;;;;;5056776;28;20024;-76
2022/12/23 04:05:13;;;;;;;127.20;42.63;;;;;;;;;;5043422;28;20472;-77
2022/12/23 04:07:52;;;;;;;135.80;43.42;;;;;;;;;;5073940;28;20040;-78
2022/12/23 04:10:18;;;;;;;129.40;42.80;;;;;;;;;;5056740;28;20032;-77
2022/12/23 04:12:44;;;;;;;122.40;43.63;;;;;;;;;;5056572;28;20060;-77
2022/12/23 04:15:09;;;;;;;127.10;42.25;;;;;;;;;;5040654;28;20071;-77
2022/12/23 04:17:35;;;;;;;128.18;42.38;;;;;;;;;;5057363;28;20028;-78
2022/12/23 04:20:01;;;;;;;136.35;44.50;;;;;;;;;;5074929;28;20021;-77
2022/12/23 04:22:26;;;;;;;145.95;49.30;;;;;;;;;;5056566;28;20445;-77
2022/12/23 04:24:52;;;;;;;141.57;51.10;;;;;;;;;;5057064;28;20644;-76
2022/12/23 04:27:17;;;;;;;141.75;50.25;;;;;;;;;;5057471;28;20024;-77
2022/12/23 04:29:43;;;;;;;132.50;46.17;;;;;;;;;;5074518;28;20487;-77
2022/12/23 04:32:08;;;;;;;137.77;47.55;;;;;;;;;;5073961;28;20024;-78
2022/12/23 04:34:34;;;;;;;146.50;48.70;;;;;;;;;;5074093;28;20021;-76
2022/12/23 04:36:59;;;;;;;141.77;48.72;;;;;;;;;;5033517;28;20037;-77
2022/12/23 04:39:25;;;;;;;135.70;47.00;;;;;;;;;;5017110;28;20069;-78
2022/12/23 04:41:50;;;;;;;143.18;49.08;;;;;;;;;;5033763;28;20033;-77
2022/12/23 04:44:16;;;;;;;160.18;51.20;;;;;;;;;;5034554;28;20038;-77
2022/12/23 04:46:41;;;;;;;153.88;50.45;;;;;;;;;;5017013;28;20025;-76
2022/12/23 04:49:07;;;;;;;154.57;51.42;;;;;;;;;;5034197;28;20044;-77
2022/12/23 04:51:32;;;;;;;149.38;51.70;;;;;;;;;;5033741;28;20132;-78
2022/12/23 04:53:57;;;;;;;166.43;55.33;;;;;;;;;;5034460;28;20090;-77
2022/12/23 04:56:23;;;;;;;153.65;54.25;;;;;;;;;;5034198;28;20033;-77
2022/12/23 04:58:48;;;;;;;161.45;56.08;;;;;;;;;;5034229;28;20037;-77
2022/12/23 05:01:14;;;;;;;162.75;55.92;;;;;;;;;;5034320;28;20044;-77
2022/12/23 05:03:39;;;;;;;175.35;56.30;;;;;;;;;;5033630;28;20041;-77
2022/12/23 05:06:05;;;;;;;161.43;56.72;;;;;;;;;;5015547;28;20049;-77
2022/12/23 05:08:31;;;;;;;190.00;64.43;;;;;;;;;;5016421;28;20393;-77
2022/12/23 05:10:56;;;;;;;192.05;71.03;;;;;;;;;;5033678;28;20025;-76
2022/12/23 05:13:22;;;;;;;200.50;69.78;;;;;;;;;;5033638;28;20025;-76
2022/12/23 05:15:48;;;;;;;201.68;71.97;;;;;;;;;;5034019;28;20025;-77
2022/12/23 05:18:14;;;;;;;205.57;73.35;;;;;;;;;;5033637;28;20093;-77
2022/12/23 05:20:41;;;;;;;211.23;79.97;;;;;;;;;;5033249;28;20045;-77
2022/12/23 05:23:06;;;;;;;209.63;78.03;;;;;;;;;;5033757;28;20377;-77
2022/12/23 05:25:32;;;;;;;218.18;78.70;;;;;;;;;;5033866;28;20120;-77
2022/12/23 05:27:58;;;;;;;238.68;87.93;;;;;;;;;;5033756;28;20041;-77
2022/12/23 05:30:23;;;;;;;227.23;80.47;;;;;;;;;;5033440;28;20340;-77
2022/12/23 05:32:54;;;;;;;199.88;76.88;;;;;;;;;;4983198;28;20087;-77
2022/12/23 05:35:21;;;;;;;226.05;80.68;;;;;;;;;;5015889;28;20123;-77
2022/12/23 05:37:46;;;;;;;223.63;82.68;;;;;;;;;;5052848;28;20033;-77
2022/12/23 05:40:12;;;;;;;243.85;82.70;;;;;;;;;;5073410;28;20039;-77
2022/12/23 05:42:37;;;;;;;224.32;82.35;;;;;;;;;;5055337;28;20040;-77
2022/12/23 05:45:03;;;;;;;238.20;85.05;;;;;;;;;;5073596;28;20547;-77
2022/12/23 05:47:29;;;;;;;237.60;84.15;;;;;;;;;;5073072;28;20028;-77
2022/12/23 05:49:54;;;;;;;237.15;89.13;;;;;;;;;;5071910;28;20055;-77
2022/12/23 05:52:19;;;;;;;242.95;86.78;;;;;;;;;;5073345;28;20115;-77
2022/12/23 05:54:45;;;;;;;230.30;86.32;;;;;;;;;;5075807;28;20032;-77
2022/12/23 05:57:11;;;;;;;249.38;89.70;;;;;;;;;;5076589;28;20040;-77
2022/12/23 05:59:37;;;;;;;260.80;91.80;;;;;;;;;;5074580;28;20315;-75
2022/12/23 06:02:02;;;;;;;247.32;91.38;;;;;;;;;;5054435;28;20063;-77
2022/12/23 06:04:28;;;;;;;237.23;88.72;;;;;;;;;;5053423;28;20029;-77
2022/12/23 06:06:53;;;;;;;240.25;91.95;;;;;;;;;;5052478;28;20033;-77
2022/12/23 06:09:19;;;;;;;237.20;89.20;;;;;;;;;;5035530;28;20107;-77
2022/12/23 06:11:44;;;;;;;250.57;94.05;;;;;;;;;;5058218;28;20103;-78
2022/12/23 06:14:09;;;;;;;281.67;112.47;;;;;;;;;;5073464;28;20036;-77
2022/12/23 06:16:35;;;;;;;275.52;106.60;;;;;;;;;;5057566;28;20388;-77
2022/12/23 06:19:01;;;;;;;284.75;103.13;;;;;;;;;;5076281;28;20119;-77
2022/12/23 06:21:26;;;;;;;284.13;104.20;;;;;;;;;;5075992;28;20350;-77
2022/12/23 06:23:52;;;;;;;291.70;104.32;;;;;;;;;;5076237;28;20028;-77
2022/12/23 06:26:17;;;;;;;300.23;109.63;;;;;;;;;;5076165;28;20119;-77
2022/12/23 06:28:43;;;;;;;388.17;146.63;;;;;;;;;;5075879;28;20036;-77
2022/12/23 06:31:08;;;;;;;401.70;140.88;;;;;;;;;;5076324;28;20361;-77
2022/12/23 06:33:34;;;;;;;307.40;113.10;;;;;;;;;;5075541;28;20460;-77
2022/12/23 06:35:59;;;;;;;282.50;98.53;;;;;;;;;;5075945;28;20029;-77
2022/12/23 06:38:25;;;;;;;297.63;106.55;;;;;;;;;;5057928;28;20454;-76
2022/12/23 06:40:50;;;;;;;288.23;103.32;;;;;;;;;;5075503;28;20023;-76
2022/12/23 06:43:16;;;;;;;288.25;105.45;;;;;;;;;;5075561;28;20111;-77
2022/12/23 06:45:45;;;;;;;292.70;106.57;;;;;;;;;;5036329;28;20457;-78
2022/12/23 06:48:11;;;;;;;286.30;106.00;;;;;;;;;;5019955;28;20275;-77
2022/12/23 06:50:36;;;;;;;308.58;114.50;;;;;;;;;;5037568;28;20033;-77
2022/12/23 06:53:01;;;;;;;290.65;109.80;;;;;;;;;;5054024;28;20033;-76
2022/12/23 06:55:27;;;;;;;326.48;119.03;;;;;;;;;;5046499;28;20039;-75
2022/12/23 06:57:54;;;;;;;325.98;117.53;;;;;;;;;;5050191;28;20035;-74
2022/12/23 07:00:20;;;;;;;310.02;118.32;;;;;;;;;;5064431;28;20446;-77
2022/12/23 07:02:46;;;;;;;288.13;108.80;;;;;;;;;;5049087;28;20032;-77
2022/12/23 07:05:11;;;;;;;295.25;105.80;;;;;;;;;;5018529;28;20481;-76
2022/12/23 07:07:37;;;;;;;290.60;105.00;;;;;;;;;;5033351;28;20028;-76
2022/12/23 07:10:04;;;;;;;259.67;98.63;;;;;;;;;;5031750;28;20037;-77
2022/12/23 07:12:29;;;;;;;258.83;97.35;;;;;;;;;;5049212;28;20381;-77
2022/12/23 07:14:55;;;;;;;251.70;96.40;;;;;;;;;;5047633;28;20196;-77
2022/12/23 07:17:20;;;;;;;239.70;90.15;;;;;;;;;;5045689;28;20297;-76
2022/12/23 07:19:45;;;;;;;249.35;95.75;;;;;;;;;;5049055;28;20028;-74
2022/12/23 07:22:11;;;;;;;270.13;104.57;;;;;;;;;;5050480;28;20123;-77
2022/12/23 07:24:38;;;;;;;261.40;103.03;;;;;;;;;;5049452;28;20103;-76
2022/12/23 07:27:04;;;;;;;258.70;95.35;;;;;;;;;;5048924;28;20088;-76
2022/12/23 07:29:29;;;;;;;244.18;94.72;;;;;;;;;;5043204;28;20037;-77
2022/12/23 07:32:00;;;;;;;244.05;94.45;;;;;;;;;;5066302;28;20469;-76
2022/12/23 07:34:25;;;;;;;238.45;94.75;;;;;;;;;;5069524;28;20130;-78
2022/12/23 07:36:51;;;;;;;237.45;91.15;;;;;;;;;;5054481;28;20375;-77
2022/12/23 07:39:16;;;;;;;251.52;100.72;;;;;;;;;;5070959;28;20032;-77
2022/12/23 07:41:42;;;;;;;239.18;94.95;;;;;;;;;;5065597;28;20047;-77
2022/12/23 07:44:09;;;;;;;227.77;91.13;;;;;;;;;;5051608;28;20146;-80
2022/12/23 07:46:34;;;;;;;231.55;95.13;;;;;;;;;;5068970;28;20042;-79
2022/12/23 07:49:00;;;;;;;241.02;92.30;;;;;;;;;;5054486;28;20036;-80
2022/12/23 07:51:26;;;;;;;224.40;87.80;;;;;;;;;;5069938;28;20028;-80
2022/12/23 07:53:51;;;;;;;215.57;86.40;;;;;;;;;;5070231;28;20051;-79
2022/12/23 07:56:22;;;;;;;221.98;88.78;;;;;;;;;;5070029;28;20032;-81
2022/12/23 07:58:51;;;;;;;234.77;92.60;;;;;;;;;;5068701;28;20032;-82
2022/12/23 08:01:19;;;;;;;221.45;89.47;;;;;;;;;;5053791;28;20057;-79
2022/12/23 08:03:45;;;;;;;197.15;77.22;;;;;;;;;;5039751;28;20162;-83
2022/12/23 08:06:11;;;;;;;171.93;64.25;;;;;;;;;;5051375;28;20639;-79
2022/12/23 08:08:37;;;;;;;179.85;69.32;;;;;;;;;;5053566;28;20033;-77
2022/12/23 08:11:04;;;;;;;167.77;59.72;;;;;;;;;;5070468;28;20037;-76
2022/12/23 08:13:31;;;;;;;179.43;65.32;;;;;;;;;;5053877;28;20108;-77
2022/12/23 08:15:58;;;;;;;184.52;71.07;;;;;;;;;;5035572;28;20068;-79
2022/12/23 08:18:23;;;;;;;162.55;65.97;;;;;;;;;;5034472;28;20591;-77
2022/12/23 08:20:59;;;;;;;173.50;65.15;;;;;;;;;;5068761;28;20029;-76
2022/12/23 08:23:25;;;;;;;168.18;62.85;;;;;;;;;;5068447;28;20114;-77
2022/12/23 08:26:10;;;;;;;180.05;67.10;;;;;;;;;;5051240;28;20095;-78
2022/12/23 08:28:36;;;;;;;176.30;67.50;;;;;;;;;;5030504;28;20091;-78
2022/12/23 08:31:09;;;;;;;191.32;74.18;;;;;;;;;;5048111;28;20036;-78
2022/12/23 08:33:35;;;;;;;193.48;74.03;;;;;;;;;;5049464;28;20033;-78
2022/12/23 08:36:01;;;;;;;195.70;77.55;;;;;;;;;;5032418;28;20060;-77
2022/12/23 08:38:26;;;;;;;180.13;69.65;;;;;;;;;;5048709;28;20076;-76
2022/12/23 08:40:52;;;;;;;189.82;76.28;;;;;;;;;;5064389;28;20035;-77
2022/12/23 08:43:18;;;;;;;174.40;66.68;;;;;;;;;;5066758;28;20110;-75
2022/12/23 08:45:43;;;;;;;177.23;66.07;;;;;;;;;;5065780;28;20461;-77
2022/12/23 08:48:09;;;;;;;155.77;64.35;;;;;;;;;;5066716;28;20036;-76
2022/12/23 08:50:41;;;;;;;157.05;63.33;;;;;;;;;;5068867;28;20051;-76
2022/12/23 08:53:07;;;;;;;168.23;63.13;;;;;;;;;;5052196;28;20516;-76
2022/12/23 08:55:39;;;;;;;163.35;66.00;;;;;;;;;;5068312;28;20086;-77
2022/12/23 08:58:04;;;;;;;154.02;63.42;;;;;;;;;;5047710;28;20040;-77
2022/12/23 09:00:30;;;;;;;156.88;64.05;;;;;;;;;;5030061;28;20039;-77
2022/12/23 09:02:55;;;;;;;159.43;64.10;;;;;;;;;;5068762;28;20020;-76
2022/12/23 09:05:21;;;;;;;158.68;62.95;;;;;;;;;;5075941;28;20400;-76
2022/12/23 09:07:46;;;;;;;153.95;63.53;;;;;;;;;;5066136;28;20126;-77
2022/12/23 09:10:12;;;;;;;156.75;65.60;;;;;;;;;;5048854;28;20032;-76
2022/12/23 09:12:37;;;;;;;171.25;72.38;;;;;;;;;;5041855;28;20550;-77
2022/12/23 09:15:03;;;;;;;174.23;70.20;;;;;;;;;;5060928;28;20144;-78
2022/12/23 09:17:29;;;;;;;165.63;69.55;;;;;;;;;;5035148;28;20032;-75
2022/12/23 09:19:55;;;;;;;165.02;66.75;;;;;;;;;;5030739;28;20455;-77
2022/12/23 09:22:20;;;;;;;167.02;69.05;;;;;;;;;;5034325;28;20021;-76
2022/12/23 09:24:46;;;;;;;169.13;68.28;;;;;;;;;;5053766;28;20027;-76
2022/12/23 09:27:11;;;;;;;169.15;66.47;;;;;;;;;;5057381;28;20031;-77
2022/12/23 09:29:36;;;;;;;156.98;64.85;;;;;;;;;;5053679;28;20128;-77
2022/12/23 09:32:02;;;;;;;156.50;62.03;;;;;;;;;;5012627;28;20056;-77
2022/12/23 09:34:27;;;;;;;152.98;63.70;;;;;;;;;;5029104;28;20369;-77
2022/12/23 09:36:53;;;;;;;156.50;66.68;;;;;;;;;;5046313;28;20049;-77
2022/12/23 09:39:18;;;;;;;156.18;68.75;;;;;;;;;;5047979;28;20033;-78
2022/12/23 09:42:02;;;;;;;162.60;65.82;;;;;;;;;;5047888;28;20017;-78
2022/12/23 09:44:32;;;;;;;151.40;63.58;;;;;;;;;;5042336;28;20052;-77
2022/12/23 09:46:59;;;;;;;164.53;69.97;;;;;;;;;;5053334;28;20038;-77
2022/12/23 09:49:25;;;;;;;169.23;67.82;;;;;;;;;;5072595;28;20134;-77
2022/12/23 09:51:52;;;;;;;161.20;70.07;;;;;;;;;;5053895;28;20029;-77
2022/12/23 09:54:19;;;;;;;162.82;70.82;;;;;;;;;;5054443;28;20033;-77
2022/12/23 09:56:47;;;;;;;154.15;69.32;;;;;;;;;;5053607;28;20032;-77
2022/12/23 09:59:44;;;;;;;149.30;64.93;;;;;;;;;;5073366;28;20032;-77
2022/12/23 10:02:17;;;;;;;141.82;60.63;;;;;;;;;;5055475;28;20029;-77
2022/12/23 10:04:51;;;;;;;133.07;61.05;;;;;;;;;;5056790;28;20039;-77
2022/12/23 10:08:03;;;;;;;145.93;63.42;;;;;;;;;;5074776;28;20040;-77
2022/12/23 10:10:48;;;;;;;143.32;60.50;;;;;;;;;;5067058;28;20037;-77
2022/12/23 10:13:36;;;;;;;131.88;61.25;;;;;;;;;;5038951;28;20373;-77
2022/12/23 10:16:04;;;;;;;132.85;58.65;;;;;;;;;;5042385;28;20079;-78
2022/12/23 10:18:55;;;;;;;132.95;60.03;;;;;;;;;;5028518;28;20035;-75
2022/12/23 10:21:42;;;;;;;165.52;75.80;;;;;;;;;;5053128;28;20426;-76
2022/12/23 10:24:15;;;;;;;192.88;87.85;;;;;;;;;;5036261;28;20031;-76
2022/12/23 10:26:52;;;;;;;168.65;79.65;;;;;;;;;;5035713;28;20032;-76
2022/12/23 10:29:18;;;;;;;160.43;73.18;;;;;;;;;;5052287;28;20464;-76
2022/12/23 10:32:00;;;;;;;152.15;65.40;;;;;;;;;;5052560;28;20041;-76
2022/12/23 10:35:05;;;;;;;156.63;70.25;;;;;;;;;;5036889;28;20037;-77
2022/12/23 10:37:52;;;;;;;149.63;64.88;;;;;;;;;;5052582;28;20087;-77
2022/12/23 10:40:20;;;;;;;154.68;69.50;;;;;;;;;;5033721;28;20044;-75
2022/12/23 10:43:18;;;;;;;160.43;70.40;;;;;;;;;;5053018;28;20052;-76
2022/12/23 10:46:01;;;;;;;154.77;69.40;;;;;;;;;;5008354;28;20063;-77
2022/12/23 10:48:58;;;;;;;160.98;72.07;;;;;;;;;;5037169;28;20116;-77
2022/12/23 10:51:39;;;;;;;175.20;77.38;;;;;;;;;;5055041;28;20037;-77
2022/12/23 10:54:05;;;;;;;176.48;82.45;;;;;;;;;;5037092;28;20035;-77
2022/12/23 10:56:31;;;;;;;173.32;78.05;;;;;;;;;;5054022;28;20074;-76
2022/12/23 10:58:58;;;;;;;185.68;86.07;;;;;;;;;;5054285;28;20044;-77
2022/12/23 11:01:23;;;;;;;193.38;86.38;;;;;;;;;;5036046;28;20025;-77
2022/12/23 11:03:58;;;;;;;177.05;82.38;;;;;;;;;;5036268;28;20029;-77
2022/12/23 11:06:23;;;;;;;200.77;89.00;;;;;;;;;;5036104;28;20092;-77
2022/12/23 11:08:49;;;;;;;198.68;89.75;;;;;;;;;;5053751;28;20044;-77
2022/12/23 11:11:14;;;;;;;202.13;93.32;;;;;;;;;;5052768;28;20512;-77
2022/12/23 11:13:41;;;;;;;201.50;93.05;;;;;;;;;;5055168;28;20024;-77
2022/12/23 11:16:17;;;;;;;221.93;100.82;;;;;;;;;;5037394;28;20373;-77
2022/12/23 11:18:55;;;;;;;205.23;92.40;;;;;;;;;;5037215;28;20025;-77
2022/12/23 11:21:20;;;;;;;204.85;93.80;;;;;;;;;;5037847;28;20131;-76
2022/12/23 11:23:46;;;;;;;211.02;96.95;;;;;;;;;;5053742;28;20071;-77
2022/12/23 11:26:13;;;;;;;194.68;90.43;;;;;;;;;;5020396;28;20048;-77
2022/12/23 11:28:45;;;;;;;187.52;86.82;;;;;;;;;;5054933;28;20053;-77
2022/12/23 11:31:13;;;;;;;189.23;85.32;;;;;;;;;;5054708;28;20123;-77
2022/12/23 11:33:47;;;;;;;192.18;85.03;;;;;;;;;;5037631;28;20033;-78
2022/12/23 11:36:16;;;;;;;168.30;81.00;;;;;;;;;;5053717;28;20025;-77
2022/12/23 11:39:13;;;;;;;181.48;79.78;;;;;;;;;;5053034;28;20493;-76
2022/12/23 11:41:46;;;;;;;173.32;78.80;;;;;;;;;;5036891;28;20025;-76
2022/12/23 11:44:22;;;;;;;174.55;79.75;;;;;;;;;;5054516;28;20462;-76
2022/12/23 11:46:47;;;;;;;170.57;76.03;;;;;;;;;;5054837;28;20113;-76
2022/12/23 11:49:14;;;;;;;162.50;72.97;;;;;;;;;;5036881;28;20032;-76
2022/12/23 11:51:40;;;;;;;154.43;68.63;;;;;;;;;;5020385;28;20094;-78
2022/12/23 11:54:13;;;;;;;154.40;67.55;;;;;;;;;;5037040;28;20033;-77
2022/12/23 11:56:40;;;;;;;155.57;67.50;;;;;;;;;;5038583;28;20434;-77
2022/12/23 11:59:25;;;;;;;157.95;69.10;;;;;;;;;;5056570;28;20477;-77
2022/12/23 12:01:51;;;;;;;160.52;70.13;;;;;;;;;;5055514;28;20028;-76
2022/12/23 12:04:19;;;;;;;173.95;76.47;;;;;;;;;;5036518;28;20021;-77
2022/12/23 12:06:47;;;;;;;175.00;79.72;;;;;;;;;;5053088;28;20029;-77
2022/12/23 12:09:12;;;;;;;165.23;72.88;;;;;;;;;;5053495;28;20053;-78
2022/12/23 12:11:42;;;;;;;164.77;69.82;;;;;;;;;;5054108;28;20033;-77
2022/12/23 12:14:14;;;;;;;167.32;71.88;;;;;;;;;;5054223;28;20025;-77
2022/12/23 12:16:57;;;;;;;181.93;74.90;;;;;;;;;;5052466;28;20488;-76
2022/12/23 12:19:30;;;;;;;174.65;78.25;;;;;;;;;;5054906;28;20119;-77
2022/12/23 12:22:01;;;;;;;180.05;79.53;;;;;;;;;;5036172;28;20025;-79
2022/12/23 12:24:29;;;;;;;183.43;82.72;;;;;;;;;;5036277;28;20457;-78
2022/12/23 12:26:59;;;;;;;188.35;83.93;;;;;;;;;;5052749;28;20037;-78
2022/12/23 12:29:38;;;;;;;174.57;77.95;;;;;;;;;;5036474;28;20432;-77
2022/12/23 12:32:05;;;;;;;159.68;72.97;;;;;;;;;;5053881;28;20036;-77
2022/12/23 12:34:50;;;;;;;166.95;73.38;;;;;;;;;;5052407;28;20120;-76
2022/12/23 12:37:36;;;;;;;163.15;74.50;;;;;;;;;;5036109;28;20430;-76
2022/12/23 12:40:31;;;;;;;144.95;62.15;;;;;;;;;;5036405;28;20108;-77
2022/12/23 12:43:00;;;;;;;128.18;58.45;;;;;;;;;;5030183;28;20425;-76
2022/12/23 12:45:54;;;;;;;123.07;54.53;;;;;;;;;;5052289;28;20061;-77
2022/12/23 12:48:31;;;;;;;110.60;51.38;;;;;;;;;;5053899;28;20037;-76
2022/12/23 12:51:21;;;;;;;116.30;51.22;;;;;;;;;;5035999;28;20115;-75
2022/12/23 12:54:08;;;;;;;113.55;49.65;;;;;;;;;;5052345;28;20029;-77
2022/12/23 12:56:54;;;;;;;120.28;53.85;;;;;;;;;;5037222;28;20121;-76
2022/12/23 12:59:27;;;;;;;120.13;52.45;;;;;;;;;;5052877;28;20032;-76
2022/12/23 13:01:58;;;;;;;111.07;50.38;;;;;;;;;;5038440;28;20334;-76
2022/12/23 13:04:58;;;;;;;108.78;47.25;;;;;;;;;;5057377;28;20399;-76
2022/12/23 13:07:57;;;;;;;131.32;55.85;;;;;;;;;;5057511;28;20098;-77
2022/12/23 13:10:46;;;;;;;131.70;57.30;;;;;;;;;;5057853;28;20132;-76
2022/12/23 13:13:20;;;;;;;178.70;70.65;;;;;;;;;;5057760;28;20033;-76
2022/12/23 13:15:46;;;;;;;201.40;79.05;;;;;;;;;;5057362;28;20037;-76
2022/12/23 13:18:26;;;;;;;169.48;67.15;;;;;;;;;;5057594;28;20106;-77
2022/12/23 13:20:57;;;;;;;198.38;73.55;;;;;;;;;;5055887;28;20458;-76
2022/12/23 13:23:38;;;;;;;385.88;122.35;;;;;;;;;;5040358;28;20033;-76
2022/12/23 13:26:36;;;;;;;134.57;57.53;;;;;;;;;;5039932;28;20060;-77
2022/12/23 13:29:26;;;;;;;179.40;73.03;;;;;;;;;;5028502;28;20432;-77
2022/12/23 13:32:01;;;;;;;191.15;71.10;;;;;;;;;;5057700;28;20029;-77
2022/12/23 13:34:41;;;;;;;166.32;65.78;;;;;;;;;;5057200;28;20334;-77
2022/12/23 13:37:27;;;;;;;299.10;97.93;;;;;;;;;;5055869;28;20052;-77
2022/12/23 13:40:02;;;;;;;278.55;91.80;;;;;;;;;;5039186;28;20064;-77
2022/12/23 13:42:37;;;;;;;195.90;70.68;;;;;;;;;;5040008;28;20033;-77
2022/12/23 13:45:03;;;;;;;165.32;65.97;;;;;;;;;;5039060;28;20013;-77
2022/12/23 13:47:56;;;;;;;145.20;62.45;;;;;;;;;;5056713;28;20033;-76
2022/12/23 13:50:49;;;;;;;151.20;67.30;;;;;;;;;;5036937;28;20037;-77
2022/12/23 13:53:25;;;;;;;159.48;68.65;;;;;;;;;;5031330;28;20132;-78
2022/12/23 13:56:05;;;;;;;183.15;73.90;;;;;;;;;;5038846;28;20028;-77
2022/12/23 13:58:31;;;;;;;;;;;;;;;;;;5023216;28;20439;-77
2022/12/23 14:01:08;;;;;;;206.43;81.35;;;;;;;;;;5072447;28;19913;-76
2022/12/23 14:03:37;;;;;;;192.88;75.10;;;;;;;;;;5056588;28;20029;-76
2022/12/23 14:06:25;;;;;;;198.25;78.68;;;;;;;;;;5056635;28;20349;-77
2022/12/23 14:08:51;;;;;;;244.23;92.82;;;;;;;;;;5038806;28;20131;-77
2022/12/23 14:11:24;;;;;;;204.30;79.93;;;;;;;;;;5038919;28;20037;-77
2022/12/23 14:13:49;;;;;;;214.60;84.50;;;;;;;;;;5037410;28;20028;-77
2022/12/23 14:16:37;;;;;;;210.23;83.13;;;;;;;;;;5056526;28;20025;-77
2022/12/23 14:19:17;;;;;;;209.45;84.05;;;;;;;;;;5041378;28;20450;-77
2022/12/23 14:21:59;;;;;;;204.80;82.07;;;;;;;;;;5056437;28;20028;-77
2022/12/23 14:24:55;;;;;;;187.13;77.30;;;;;;;;;;5039833;28;20033;-77
2022/12/23 14:27:39;;;;;;;202.68;79.30;;;;;;;;;;5055656;28;20028;-77
2022/12/23 14:30:14;;;;;;;183.93;75.80;;;;;;;;;;5038424;28;20051;-77
2022/12/23 14:32:57;;;;;;;172.32;69.88;;;;;;;;;;5055694;28;20453;-76
2022/12/23 14:35:32;;;;;;;161.15;69.63;;;;;;;;;;5038347;28;20036;-76
2022/12/23 14:38:12;;;;;;;172.85;70.97;;;;;;;;;;5038158;28;20029;-77
2022/12/23 14:40:38;;;;;;;;;;;;;;;;;;5056486;28;20033;-77
2022/12/23 14:43:21;;;;;;;189.07;78.30;;;;;;;;;;5055631;28;19913;-78
2022/12/23 14:45:48;;;;;;;190.15;80.40;;;;;;;;;;5055359;28;20124;-77
2022/12/23 14:48:32;;;;;;;186.43;82.85;;;;;;;;;;5054677;28;20059;-76
2022/12/23 14:50:58;;;;;;;190.93;83.75;;;;;;;;;;5055771;28;20040;-76
2022/12/23 14:53:24;;;;;;;193.30;84.45;;;;;;;;;;5038060;28;20039;-76